Time;durP1;ratioP1;P1;durP2;ratioP2;P2;SDS_P1;SDS_P2;PMS_P1;PMS_P2;Temp;Humidity;BMP_temperature;BMP_pressure;BME280_temperature;BME280_humidity;BME280_pressure;Samples;Min_cycle;Max_cycle;Signal;HPM_P1;HPM_P2
2022/03/04 00:02:11;;;;;;;10.13;6.18;;;;;;;;;;5104235;28;20690;-62
2022/03/04 00:04:37;;;;;;;7.50;6.10;;;;;;;;;;5089841;28;20232;-62
2022/03/04 00:07:02;;;;;;;6.88;5.65;;;;;;;;;;5092217;28;20169;-62
2022/03/04 00:09:28;;;;;;;13.65;5.45;;;;;;;;;;5098924;28;20658;-62
2022/03/04 00:11:53;;;;;;;6.78;5.78;;;;;;;;;;5099303;28;20237;-62
2022/03/04 00:14:19;;;;;;;6.38;5.75;;;;;;;;;;5099624;28;20741;-62
2022/03/04 00:16:45;;;;;;;7.22;5.95;;;;;;;;;;5098114;27;20900;-63
2022/03/04 00:19:10;;;;;;;5.32;4.82;;;;;;;;;;5099874;28;20196;-62
2022/03/04 00:21:36;;;;;;;6.00;5.20;;;;;;;;;;5094248;28;20172;-61
2022/03/04 00:24:02;;;;;;;7.15;6.05;;;;;;;;;;5092244;28;20177;-62
2022/03/04 00:26:27;;;;;;;7.32;5.82;;;;;;;;;;5099900;28;20172;-62
2022/03/04 00:28:52;;;;;;;5.70;5.10;;;;;;;;;;5104552;28;20181;-62
2022/03/04 00:31:18;;;;;;;6.40;5.80;;;;;;;;;;5104399;28;20255;-61
2022/03/04 00:33:43;;;;;;;7.05;6.03;;;;;;;;;;5106674;28;20317;-61
2022/03/04 00:36:08;;;;;;;5.90;5.38;;;;;;;;;;5081383;28;20187;-61
2022/03/04 00:38:33;;;;;;;8.50;6.07;;;;;;;;;;5077574;28;20188;-61
2022/03/04 00:40:59;;;;;;;6.65;5.68;;;;;;;;;;5080121;28;20208;-62
2022/03/04 00:43:24;;;;;;;5.80;5.22;;;;;;;;;;5104707;28;20171;-61
2022/03/04 00:45:50;;;;;;;7.63;6.40;;;;;;;;;;5101882;28;20299;-61
2022/03/04 00:48:16;;;;;;;6.80;5.68;;;;;;;;;;5100125;28;20187;-61
2022/03/04 00:50:41;;;;;;;7.32;5.88;;;;;;;;;;5098744;28;20196;-62
2022/03/04 00:53:06;;;;;;;6.82;6.07;;;;;;;;;;5103229;28;20183;-62
2022/03/04 00:55:34;;;;;;;8.70;6.05;;;;;;;;;;5095593;28;20184;-62
2022/03/04 00:57:59;;;;;;;6.47;5.82;;;;;;;;;;5096936;28;20324;-62
2022/03/04 01:00:25;;;;;;;8.07;5.75;;;;;;;;;;5098371;28;20195;-62
2022/03/04 01:02:50;;;;;;;6.97;5.93;;;;;;;;;;5100972;28;20176;-62
2022/03/04 01:05:15;;;;;;;8.95;6.68;;;;;;;;;;5092997;28;20624;-62
2022/03/04 01:07:40;;;;;;;12.82;6.57;;;;;;;;;;5101581;28;20164;-62
2022/03/04 01:10:06;;;;;;;6.13;5.47;;;;;;;;;;5092662;28;20686;-62
2022/03/04 01:12:31;;;;;;;7.18;5.82;;;;;;;;;;5099471;28;20201;-62
2022/03/04 01:14:56;;;;;;;8.00;6.07;;;;;;;;;;5094305;28;20172;-62
2022/03/04 01:17:22;;;;;;;8.63;6.03;;;;;;;;;;5089171;28;20872;-62
2022/03/04 01:19:47;;;;;;;6.50;5.88;;;;;;;;;;5076639;28;20196;-62
2022/03/04 01:22:12;;;;;;;5.90;5.35;;;;;;;;;;5078437;28;20592;-62
2022/03/04 01:24:38;;;;;;;7.07;6.10;;;;;;;;;;5089221;28;20763;-62
2022/03/04 01:27:03;;;;;;;8.70;5.45;;;;;;;;;;5095803;28;20176;-62
2022/03/04 01:29:28;;;;;;;7.78;5.75;;;;;;;;;;5093136;28;20597;-62
2022/03/04 01:31:53;;;;;;;6.47;5.78;;;;;;;;;;5097022;28;20241;-61
2022/03/04 01:34:19;;;;;;;7.85;5.30;;;;;;;;;;5107162;28;20274;-62
2022/03/04 01:36:44;;;;;;;6.45;5.50;;;;;;;;;;5092248;28;21026;-62
2022/03/04 01:39:09;;;;;;;6.63;5.53;;;;;;;;;;5098293;28;20248;-62
2022/03/04 01:41:35;;;;;;;6.78;5.95;;;;;;;;;;5097103;28;20206;-62
2022/03/04 01:44:00;;;;;;;6.93;6.22;;;;;;;;;;5099264;28;20714;-62
2022/03/04 01:46:27;;;;;;;11.45;7.53;;;;;;;;;;5099829;28;20176;-62
2022/03/04 01:48:53;;;;;;;9.73;7.40;;;;;;;;;;5099017;28;20652;-62
2022/03/04 01:51:18;;;;;;;9.27;7.07;;;;;;;;;;5098752;28;20176;-62
2022/03/04 01:53:43;;;;;;;10.00;6.88;;;;;;;;;;5097493;28;20204;-62
2022/03/04 01:56:09;;;;;;;6.68;6.07;;;;;;;;;;5094915;28;20176;-62
2022/03/04 01:58:34;;;;;;;6.40;5.80;;;;;;;;;;5104462;28;20175;-62
2022/03/04 02:00:59;;;;;;;6.88;6.20;;;;;;;;;;5097221;28;20172;-62
2022/03/04 02:03:25;;;;;;;6.75;6.13;;;;;;;;;;5096972;28;20180;-62
2022/03/04 02:05:50;;;;;;;6.40;5.80;;;;;;;;;;5099549;28;20178;-62
2022/03/04 02:08:15;;;;;;;6.85;5.55;;;;;;;;;;5094311;28;20183;-62
2022/03/04 02:10:41;;;;;;;5.82;5.32;;;;;;;;;;5094754;28;20697;-62
2022/03/04 02:13:06;;;;;;;6.88;5.50;;;;;;;;;;5099135;28;20171;-62
2022/03/04 02:15:31;;;;;;;6.53;5.88;;;;;;;;;;5100559;28;20696;-62
2022/03/04 02:17:56;;;;;;;6.25;5.70;;;;;;;;;;5098577;28;20171;-62
2022/03/04 02:20:22;;;;;;;6.50;5.82;;;;;;;;;;5096229;28;21078;-62
2022/03/04 02:22:48;;;;;;;5.90;5.15;;;;;;;;;;5095703;28;20184;-62
2022/03/04 02:25:13;;;;;;;5.93;5.32;;;;;;;;;;5097527;28;20178;-62
2022/03/04 02:27:38;;;;;;;7.57;6.50;;;;;;;;;;5092624;28;20556;-62
2022/03/04 02:30:04;;;;;;;13.10;7.80;;;;;;;;;;5102985;28;20253;-62
2022/03/04 02:32:29;;;;;;;8.48;6.68;;;;;;;;;;5093382;28;20182;-63
2022/03/04 02:34:55;;;;;;;7.35;6.28;;;;;;;;;;5092955;28;20187;-62
2022/03/04 02:37:20;;;;;;;8.63;6.90;;;;;;;;;;5099286;28;20183;-62
2022/03/04 02:39:45;;;;;;;7.15;5.72;;;;;;;;;;5099796;28;20259;-63
2022/03/04 02:42:11;;;;;;;7.70;6.25;;;;;;;;;;5097851;28;21152;-62
2022/03/04 02:44:36;;;;;;;9.98;6.82;;;;;;;;;;5100033;28;20188;-62
2022/03/04 02:47:02;;;;;;;6.63;5.32;;;;;;;;;;5101623;28;20179;-62
2022/03/04 02:49:27;;;;;;;7.28;6.00;;;;;;;;;;5100246;28;20196;-62
2022/03/04 02:51:52;;;;;;;6.05;5.43;;;;;;;;;;5096587;28;20695;-62
2022/03/04 02:54:18;;;;;;;7.82;5.43;;;;;;;;;;5094674;28;20180;-62
2022/03/04 02:56:43;;;;;;;7.00;5.40;;;;;;;;;;5107456;28;20182;-63
2022/03/04 02:59:08;;;;;;;7.50;5.72;;;;;;;;;;5091684;28;20186;-62
2022/03/04 03:01:33;;;;;;;6.40;5.80;;;;;;;;;;5092076;28;20188;-62
2022/03/04 03:03:59;;;;;;;5.82;5.30;;;;;;;;;;5101361;28;20552;-62
2022/03/04 03:06:24;;;;;;;10.48;6.03;;;;;;;;;;5100251;28;20188;-62
2022/03/04 03:08:49;;;;;;;6.45;5.05;;;;;;;;;;5104119;28;20645;-62
2022/03/04 03:11:15;;;;;;;6.47;5.30;;;;;;;;;;5095710;28;20179;-62
2022/03/04 03:13:40;;;;;;;8.35;6.10;;;;;;;;;;5091338;28;20259;-63
2022/03/04 03:16:06;;;;;;;6.68;5.80;;;;;;;;;;5104048;28;20175;-62
2022/03/04 03:18:31;;;;;;;6.57;5.65;;;;;;;;;;5103182;28;20187;-62
2022/03/04 03:20:57;;;;;;;6.43;5.60;;;;;;;;;;5098080;28;20171;-62
2022/03/04 03:23:22;;;;;;;6.40;5.80;;;;;;;;;;5099260;28;20208;-62
2022/03/04 03:25:47;;;;;;;7.18;5.60;;;;;;;;;;5098435;28;20606;-62
2022/03/04 03:28:13;;;;;;;7.93;6.65;;;;;;;;;;5100224;28;20703;-62
2022/03/04 03:30:38;;;;;;;7.45;5.30;;;;;;;;;;5100724;28;20206;-62
2022/03/04 03:33:03;;;;;;;6.40;5.30;;;;;;;;;;5102722;28;20195;-62
2022/03/04 03:35:29;;;;;;;6.18;5.40;;;;;;;;;;5107587;28;20278;-62
2022/03/04 03:37:54;;;;;;;7.30;5.88;;;;;;;;;;5098053;28;20200;-62
2022/03/04 03:40:20;;;;;;;8.10;6.03;;;;;;;;;;5101864;28;20171;-62
2022/03/04 03:42:46;;;;;;;10.15;6.53;;;;;;;;;;5096729;28;20237;-62
2022/03/04 03:45:12;;;;;;;7.88;6.07;;;;;;;;;;5091001;28;20192;-62
2022/03/04 03:47:38;;;;;;;6.80;6.20;;;;;;;;;;5078806;28;20283;-62
2022/03/04 03:50:05;;;;;;;6.60;5.35;;;;;;;;;;5099914;28;20212;-62
2022/03/04 03:52:30;;;;;;;6.88;5.45;;;;;;;;;;5098282;28;20176;-62
2022/03/04 03:54:55;;;;;;;8.27;5.10;;;;;;;;;;5097576;28;20232;-62
2022/03/04 03:57:20;;;;;;;7.72;5.38;;;;;;;;;;5094620;28;20176;-62
2022/03/04 03:59:46;;;;;;;6.00;5.38;;;;;;;;;;5105912;28;20270;-62
2022/03/04 04:02:11;;;;;;;6.72;5.50;;;;;;;;;;5105492;28;20179;-62
2022/03/04 04:04:36;;;;;;;15.68;5.70;;;;;;;;;;5100948;28;20224;-62
2022/03/04 04:07:05;;;;;;;6.05;5.55;;;;;;;;;;5080892;28;20172;-62
2022/03/04 04:09:31;;;;;;;6.00;4.95;;;;;;;;;;5098169;28;20198;-63
2022/03/04 04:11:56;;;;;;;5.90;5.40;;;;;;;;;;5102650;28;20168;-63
2022/03/04 04:14:21;;;;;;;6.50;5.80;;;;;;;;;;5096206;28;20264;-62
2022/03/04 04:16:46;;;;;;;6.18;5.57;;;;;;;;;;5093761;28;20176;-62
2022/03/04 04:19:12;;;;;;;6.22;5.40;;;;;;;;;;5102968;28;20184;-62
2022/03/04 04:21:38;;;;;;;9.75;5.40;;;;;;;;;;5092295;28;20194;-62
2022/03/04 04:24:03;;;;;;;6.15;5.38;;;;;;;;;;5101285;28;20623;-62
2022/03/04 04:26:29;;;;;;;8.38;5.55;;;;;;;;;;5092000;28;20190;-62
2022/03/04 04:28:54;;;;;;;5.97;5.38;;;;;;;;;;5076550;28;20817;-62
2022/03/04 04:31:19;;;;;;;6.32;5.72;;;;;;;;;;5098551;28;20313;-62
2022/03/04 04:33:45;;;;;;;5.93;5.28;;;;;;;;;;5096186;28;20184;-62
2022/03/04 04:36:10;;;;;;;6.57;5.72;;;;;;;;;;5092452;28;20542;-62
2022/03/04 04:38:35;;;;;;;7.43;6.07;;;;;;;;;;5092264;28;20327;-62
2022/03/04 04:41:01;;;;;;;6.80;6.10;;;;;;;;;;5103831;28;20205;-62
2022/03/04 04:43:26;;;;;;;6.57;5.75;;;;;;;;;;5094331;28;20184;-62
2022/03/04 04:45:51;;;;;;;6.30;5.70;;;;;;;;;;5091572;28;20190;-62
2022/03/04 04:48:17;;;;;;;8.35;5.57;;;;;;;;;;5097761;28;20259;-62
2022/03/04 04:50:43;;;;;;;6.38;5.78;;;;;;;;;;5076717;28;20219;-62
2022/03/04 04:53:08;;;;;;;5.30;4.80;;;;;;;;;;5077337;28;20667;-62
2022/03/04 04:55:33;;;;;;;6.00;5.40;;;;;;;;;;5092062;28;20195;-62
2022/03/04 04:57:59;;;;;;;6.47;5.60;;;;;;;;;;5094467;28;20173;-63
2022/03/04 05:00:24;;;;;;;6.90;5.80;;;;;;;;;;5094840;28;20191;-63
2022/03/04 05:02:50;;;;;;;6.25;5.43;;;;;;;;;;5090414;28;20187;-63
2022/03/04 05:05:15;;;;;;;5.70;5.20;;;;;;;;;;5102252;28;20585;-62
2022/03/04 05:07:40;;;;;;;7.05;5.97;;;;;;;;;;5092823;28;20202;-63
2022/03/04 05:10:06;;;;;;;6.00;5.40;;;;;;;;;;5095977;28;20212;-63
2022/03/04 05:12:32;;;;;;;6.43;5.63;;;;;;;;;;5097482;28;20673;-63
2022/03/04 05:14:57;;;;;;;6.85;5.20;;;;;;;;;;5099388;28;20649;-63
2022/03/04 05:17:24;;;;;;;6.78;6.07;;;;;;;;;;5087512;28;20187;-63
2022/03/04 05:19:49;;;;;;;5.75;5.25;;;;;;;;;;5094080;28;20715;-63
2022/03/04 05:22:15;;;;;;;8.27;5.75;;;;;;;;;;5102901;28;20300;-63
2022/03/04 05:24:40;;;;;;;5.70;5.20;;;;;;;;;;5090961;28;20188;-63
2022/03/04 05:27:05;;;;;;;6.40;5.80;;;;;;;;;;5107023;28;20670;-63
2022/03/04 05:29:30;;;;;;;6.07;5.45;;;;;;;;;;5095426;28;20211;-63
2022/03/04 05:31:56;;;;;;;7.97;5.45;;;;;;;;;;5096129;28;20732;-63
2022/03/04 05:34:21;;;;;;;6.35;5.75;;;;;;;;;;5097731;28;20179;-63
2022/03/04 05:36:46;;;;;;;6.40;5.80;;;;;;;;;;5102048;28;20345;-63
2022/03/04 05:39:12;;;;;;;5.72;5.18;;;;;;;;;;5092422;28;20229;-62
2022/03/04 05:41:37;;;;;;;5.93;5.07;;;;;;;;;;5098946;28;20275;-63
2022/03/04 05:44:03;;;;;;;7.28;5.63;;;;;;;;;;5097523;28;21033;-63
2022/03/04 05:46:29;;;;;;;6.25;5.72;;;;;;;;;;5095899;28;20211;-63
2022/03/04 05:48:54;;;;;;;6.43;5.53;;;;;;;;;;5086123;28;20184;-63
2022/03/04 05:51:20;;;;;;;5.80;5.25;;;;;;;;;;5094407;28;20176;-63
2022/03/04 05:53:45;;;;;;;6.03;5.43;;;;;;;;;;5095927;28;20173;-63
2022/03/04 05:56:10;;;;;;;6.72;5.43;;;;;;;;;;5098044;28;20260;-63
2022/03/04 05:58:36;;;;;;;5.35;4.85;;;;;;;;;;5099613;28;20301;-63
2022/03/04 06:01:02;;;;;;;6.18;5.07;;;;;;;;;;5095751;28;20575;-63
2022/03/04 06:03:28;;;;;;;6.22;5.63;;;;;;;;;;5096539;28;20175;-63
2022/03/04 06:05:53;;;;;;;5.07;4.63;;;;;;;;;;5089206;28;20192;-61
2022/03/04 06:08:18;;;;;;;5.93;5.28;;;;;;;;;;5106928;28;20194;-61
2022/03/04 06:10:44;;;;;;;5.97;5.28;;;;;;;;;;5100450;28;20688;-62
2022/03/04 06:13:09;;;;;;;6.15;5.55;;;;;;;;;;5095316;28;20911;-62
2022/03/04 06:15:35;;;;;;;6.05;5.32;;;;;;;;;;5096592;28;20183;-62
2022/03/04 06:18:00;;;;;;;6.18;5.25;;;;;;;;;;5099359;28;20174;-62
2022/03/04 06:20:25;;;;;;;6.65;5.85;;;;;;;;;;5093431;28;20184;-62
2022/03/04 06:22:51;;;;;;;8.40;6.90;;;;;;;;;;5102917;28;20191;-62
2022/03/04 06:25:16;;;;;;;7.60;6.55;;;;;;;;;;5105706;28;20220;-62
2022/03/04 06:27:56;;;;;;;6.82;6.15;;;;;;;;;;5095945;28;20180;-62
2022/03/04 06:30:22;;;;;;;8.25;6.15;;;;;;;;;;5096320;28;20208;-62
2022/03/04 06:32:48;;;;;;;6.00;5.43;;;;;;;;;;5093967;28;20263;-62
2022/03/04 06:35:13;;;;;;;7.30;6.57;;;;;;;;;;5095635;28;20245;-62
2022/03/04 06:37:39;;;;;;;9.40;7.47;;;;;;;;;;5096655;28;20199;-62
2022/03/04 06:40:06;;;;;;;8.20;6.55;;;;;;;;;;5097942;28;20205;-62
2022/03/04 06:42:32;;;;;;;6.55;5.95;;;;;;;;;;5091862;28;20275;-62
2022/03/04 06:44:57;;;;;;;8.00;6.28;;;;;;;;;;5098114;28;20250;-62
2022/03/04 06:47:22;;;;;;;7.55;6.50;;;;;;;;;;5096294;28;20569;-62
2022/03/04 06:49:47;;;;;;;12.05;6.68;;;;;;;;;;5096570;28;20250;-62
2022/03/04 06:52:13;;;;;;;38.22;21.15;;;;;;;;;;5098735;28;20233;-62
2022/03/04 06:54:39;;;;;;;36.72;22.98;;;;;;;;;;5096654;28;20175;-62
2022/03/04 06:57:04;;;;;;;34.97;23.05;;;;;;;;;;5095748;28;20183;-62
2022/03/04 06:59:30;;;;;;;28.98;21.48;;;;;;;;;;5098113;28;20178;-62
2022/03/04 07:01:55;;;;;;;27.35;18.85;;;;;;;;;;5104173;28;20293;-62
2022/03/04 07:04:20;;;;;;;35.05;25.17;;;;;;;;;;5095687;28;20201;-62
2022/03/04 07:06:46;;;;;;;27.65;19.25;;;;;;;;;;5091443;28;20176;-62
2022/03/04 07:09:11;;;;;;;27.38;18.50;;;;;;;;;;5088002;28;20207;-62
2022/03/04 07:11:36;;;;;;;25.55;14.80;;;;;;;;;;5095252;28;20621;-62
2022/03/04 07:14:01;;;;;;;25.88;17.30;;;;;;;;;;5093000;28;20215;-62
2022/03/04 07:16:27;;;;;;;26.92;17.45;;;;;;;;;;5097717;28;20204;-62
2022/03/04 07:18:52;;;;;;;22.42;15.77;;;;;;;;;;5099755;28;20172;-62
2022/03/04 07:21:17;;;;;;;30.27;20.58;;;;;;;;;;5103015;28;20192;-62
2022/03/04 07:23:43;;;;;;;21.77;15.40;;;;;;;;;;5091709;28;20176;-62
2022/03/04 07:26:09;;;;;;;24.65;17.13;;;;;;;;;;5095047;28;20202;-62
2022/03/04 07:28:35;;;;;;;30.42;18.25;;;;;;;;;;5102854;27;20190;-62
2022/03/04 07:31:00;;;;;;;30.70;18.40;;;;;;;;;;5101032;28;20207;-62
2022/03/04 07:33:26;;;;;;;27.98;19.17;;;;;;;;;;5093892;28;20642;-62
2022/03/04 07:35:51;;;;;;;27.75;17.02;;;;;;;;;;5101410;28;20182;-62
2022/03/04 07:38:16;;;;;;;32.17;18.80;;;;;;;;;;5078650;28;20676;-62
2022/03/04 07:40:42;;;;;;;23.23;16.13;;;;;;;;;;5079528;28;20742;-62
2022/03/04 07:43:07;;;;;;;22.88;15.50;;;;;;;;;;5102878;28;20275;-62
2022/03/04 07:45:33;;;;;;;22.95;15.65;;;;;;;;;;5097333;28;20246;-62
2022/03/04 07:47:59;;;;;;;22.60;14.35;;;;;;;;;;5093998;28;20199;-62
2022/03/04 07:50:24;;;;;;;25.17;15.73;;;;;;;;;;5100523;28;20203;-62
2022/03/04 07:52:49;;;;;;;22.80;13.45;;;;;;;;;;5104280;28;20184;-62
2022/03/04 07:55:15;;;;;;;22.55;14.95;;;;;;;;;;5103092;28;20232;-62
2022/03/04 07:57:41;;;;;;;25.90;14.98;;;;;;;;;;5091706;28;20179;-62
2022/03/04 08:00:08;;;;;;;20.02;13.32;;;;;;;;;;5098320;28;20794;-62
2022/03/04 08:02:34;;;;;;;20.08;12.95;;;;;;;;;;5100296;28;20708;-61
2022/03/04 08:04:59;;;;;;;23.77;14.05;;;;;;;;;;5095440;28;20195;-61
2022/03/04 08:07:24;;;;;;;27.20;15.57;;;;;;;;;;5108106;28;20191;-61
2022/03/04 08:09:50;;;;;;;19.65;12.40;;;;;;;;;;5107735;27;20205;-61
2022/03/04 08:12:15;;;;;;;18.25;11.05;;;;;;;;;;5092038;28;20176;-61
2022/03/04 08:14:40;;;;;;;22.65;12.52;;;;;;;;;;5097726;28;20255;-61
2022/03/04 08:17:06;;;;;;;22.15;12.15;;;;;;;;;;5097068;28;20238;-61
2022/03/04 08:19:33;;;;;;;20.40;12.70;;;;;;;;;;5101679;28;20171;-61
2022/03/04 08:21:58;;;;;;;18.63;12.40;;;;;;;;;;5098240;28;20729;-61
2022/03/04 08:24:24;;;;;;;21.27;12.05;;;;;;;;;;5101710;28;20188;-61
2022/03/04 08:26:49;;;;;;;20.80;13.13;;;;;;;;;;5097077;28;20176;-61
2022/03/04 08:29:15;;;;;;;19.20;11.88;;;;;;;;;;5092642;28;20200;-61
2022/03/04 08:31:40;;;;;;;19.67;14.10;;;;;;;;;;5102914;28;20704;-61
2022/03/04 08:34:06;;;;;;;23.25;13.75;;;;;;;;;;5104991;28;20183;-61
2022/03/04 08:36:32;;;;;;;18.88;13.93;;;;;;;;;;5095302;28;20260;-61
2022/03/04 08:38:59;;;;;;;22.05;14.30;;;;;;;;;;5103652;28;20171;-61
2022/03/04 08:41:24;;;;;;;19.92;13.43;;;;;;;;;;5097380;28;20183;-63
2022/03/04 08:43:51;;;;;;;19.85;13.00;;;;;;;;;;5098648;28;20171;-63
2022/03/04 08:46:16;;;;;;;18.38;13.23;;;;;;;;;;5104294;28;20180;-63
2022/03/04 08:48:42;;;;;;;20.73;13.63;;;;;;;;;;5100703;28;20172;-63
2022/03/04 08:51:07;;;;;;;23.35;13.95;;;;;;;;;;5101869;28;20195;-63
2022/03/04 08:53:32;;;;;;;19.95;14.75;;;;;;;;;;5100915;28;20176;-63
2022/03/04 08:55:58;;;;;;;22.73;13.45;;;;;;;;;;5098346;28;20182;-63
2022/03/04 08:58:23;;;;;;;19.55;13.20;;;;;;;;;;5091613;28;20191;-62
2022/03/04 09:00:48;;;;;;;22.48;12.07;;;;;;;;;;5089121;28;20183;-61
2022/03/04 09:03:14;;;;;;;15.93;11.10;;;;;;;;;;5077139;28;20184;-61
2022/03/04 09:05:39;;;;;;;16.00;11.98;;;;;;;;;;5078745;28;20179;-62
2022/03/04 09:08:04;;;;;;;18.92;11.73;;;;;;;;;;5092663;28;20319;-62
2022/03/04 09:10:30;;;;;;;18.13;11.48;;;;;;;;;;5099251;28;20222;-62
2022/03/04 09:12:55;;;;;;;19.33;11.75;;;;;;;;;;5103950;28;20176;-62
2022/03/04 09:15:20;;;;;;;16.92;12.63;;;;;;;;;;5103354;28;20182;-62
2022/03/04 09:17:46;;;;;;;16.58;12.00;;;;;;;;;;5107797;28;20208;-62
2022/03/04 09:20:12;;;;;;;15.90;12.40;;;;;;;;;;5104985;28;20263;-61
2022/03/04 09:22:37;;;;;;;15.25;11.25;;;;;;;;;;5087277;28;20295;-62
2022/03/04 09:25:03;;;;;;;15.93;11.45;;;;;;;;;;5077265;28;20180;-61
2022/03/04 09:27:29;;;;;;;17.60;11.80;;;;;;;;;;5099953;28;20569;-61
2022/03/04 09:29:54;;;;;;;16.60;11.20;;;;;;;;;;5097336;28;20203;-62
2022/03/04 09:32:20;;;;;;;15.60;11.30;;;;;;;;;;5098190;28;20172;-62
2022/03/04 09:34:45;;;;;;;17.77;12.80;;;;;;;;;;5098561;28;20211;-62
2022/03/04 09:37:11;;;;;;;16.05;11.63;;;;;;;;;;5096592;28;20191;-62
2022/03/04 09:39:36;;;;;;;15.57;11.57;;;;;;;;;;5093954;28;20188;-62
2022/03/04 09:42:01;;;;;;;14.77;11.30;;;;;;;;;;5098126;28;20187;-62
2022/03/04 09:44:27;;;;;;;16.33;12.35;;;;;;;;;;5076881;28;20865;-62
2022/03/04 09:46:52;;;;;;;19.00;12.73;;;;;;;;;;5075761;28;20237;-62
2022/03/04 09:49:18;;;;;;;18.52;13.15;;;;;;;;;;5097054;28;20587;-62
2022/03/04 09:51:43;;;;;;;48.50;30.23;;;;;;;;;;5093487;28;20176;-62
2022/03/04 09:54:09;;;;;;;20.05;13.35;;;;;;;;;;5093446;28;20524;-62
2022/03/04 09:56:34;;;;;;;17.00;12.05;;;;;;;;;;5102671;28;20560;-62
2022/03/04 09:58:59;;;;;;;19.23;13.35;;;;;;;;;;5099084;28;20176;-62
2022/03/04 10:01:25;;;;;;;14.60;11.13;;;;;;;;;;5105368;28;20187;-61
2022/03/04 10:03:51;;;;;;;16.80;12.23;;;;;;;;;;5092948;28;20619;-62
2022/03/04 10:06:17;;;;;;;18.30;12.85;;;;;;;;;;5095650;28;20210;-61
2022/03/04 10:08:44;;;;;;;16.88;12.82;;;;;;;;;;5098035;28;20172;-62
2022/03/04 10:11:11;;;;;;;17.75;12.15;;;;;;;;;;5098308;28;20210;-61
2022/03/04 10:13:45;;;;;;;16.48;12.73;;;;;;;;;;5095740;28;20191;-62
2022/03/04 10:16:12;;;;;;;17.83;12.73;;;;;;;;;;5107132;28;20174;-61
2022/03/04 10:18:37;;;;;;;16.27;11.70;;;;;;;;;;5095747;28;20168;-61
2022/03/04 10:21:02;;;;;;;16.80;12.68;;;;;;;;;;5097682;28;20676;-61
2022/03/04 10:23:28;;;;;;;15.95;11.95;;;;;;;;;;5088441;28;20292;-62
2022/03/04 10:25:54;;;;;;;18.60;13.00;;;;;;;;;;5092527;28;20250;-62
2022/03/04 10:28:24;;;;;;;16.27;11.35;;;;;;;;;;5096506;28;20180;-62
2022/03/04 10:30:50;;;;;;;17.67;12.70;;;;;;;;;;5098921;28;21011;-62
2022/03/04 10:33:19;;;;;;;13.88;11.20;;;;;;;;;;5092753;28;20236;-62
2022/03/04 10:35:45;;;;;;;14.10;12.38;;;;;;;;;;5095527;28;20171;-62
2022/03/04 10:38:18;;;;;;;17.52;12.15;;;;;;;;;;5090896;28;20218;-62
2022/03/04 10:40:44;;;;;;;17.65;13.60;;;;;;;;;;5095544;28;20187;-63
2022/03/04 10:43:10;;;;;;;20.35;14.50;;;;;;;;;;5098213;28;20191;-62
2022/03/04 10:45:36;;;;;;;15.48;12.55;;;;;;;;;;5098135;28;20175;-62
2022/03/04 10:48:02;;;;;;;14.32;12.40;;;;;;;;;;5075238;28;20235;-62
2022/03/04 10:50:27;;;;;;;18.00;11.52;;;;;;;;;;5100568;28;20374;-63
2022/03/04 10:52:54;;;;;;;18.60;13.43;;;;;;;;;;5103570;28;20180;-62
2022/03/04 10:55:29;;;;;;;19.42;16.08;;;;;;;;;;5110645;28;20187;-62
2022/03/04 10:57:55;;;;;;;16.55;12.98;;;;;;;;;;5093194;28;20232;-62
2022/03/04 11:00:27;;;;;;;17.90;12.68;;;;;;;;;;5105263;28;20184;-62
2022/03/04 11:02:53;;;;;;;25.05;19.13;;;;;;;;;;5093461;28;20790;-62
2022/03/04 11:05:19;;;;;;;22.58;17.52;;;;;;;;;;5106099;28;20664;-63
2022/03/04 11:07:44;;;;;;;18.25;14.52;;;;;;;;;;5084548;28;20189;-62
2022/03/04 11:10:10;;;;;;;21.15;13.52;;;;;;;;;;5079868;28;20536;-63
2022/03/04 11:12:36;;;;;;;18.08;13.32;;;;;;;;;;5083140;28;20237;-63
2022/03/04 11:15:01;;;;;;;18.60;13.60;;;;;;;;;;5103523;28;20184;-62
2022/03/04 11:17:28;;;;;;;25.33;16.25;;;;;;;;;;5101014;28;20179;-62
2022/03/04 11:19:54;;;;;;;31.75;21.60;;;;;;;;;;5097393;28;20184;-62
2022/03/04 11:22:19;;;;;;;26.88;16.52;;;;;;;;;;5101550;28;20175;-61
2022/03/04 11:24:44;;;;;;;16.70;12.48;;;;;;;;;;5103304;28;20655;-62
2022/03/04 11:27:10;;;;;;;15.65;12.05;;;;;;;;;;5095014;28;20183;-62
2022/03/04 11:29:36;;;;;;;17.35;11.80;;;;;;;;;;5098677;28;20648;-62
2022/03/04 11:32:03;;;;;;;19.40;14.15;;;;;;;;;;5100054;28;20196;-62
2022/03/04 11:34:34;;;;;;;15.10;12.00;;;;;;;;;;5105627;28;20176;-62
2022/03/04 11:37:01;;;;;;;15.90;12.57;;;;;;;;;;5104765;28;20195;-62
2022/03/04 11:39:26;;;;;;;19.45;13.43;;;;;;;;;;5102949;28;20240;-62
2022/03/04 11:41:53;;;;;;;36.90;21.83;;;;;;;;;;5094100;28;20188;-62
2022/03/04 11:44:18;;;;;;;35.38;19.75;;;;;;;;;;5103623;28;20236;-62
2022/03/04 11:46:48;;;;;;;19.05;11.55;;;;;;;;;;5103424;28;20187;-62
2022/03/04 11:49:24;;;;;;;14.82;10.30;;;;;;;;;;5087022;28;20204;-62
2022/03/04 11:52:08;;;;;;;13.93;11.18;;;;;;;;;;5097212;28;20210;-62
2022/03/04 11:54:35;;;;;;;16.83;13.45;;;;;;;;;;5102090;28;20225;-62
2022/03/04 11:57:13;;;;;;;14.23;10.90;;;;;;;;;;5098875;28;20182;-62
2022/03/04 11:59:39;;;;;;;12.45;10.30;;;;;;;;;;5099999;28;20184;-62
2022/03/04 12:02:05;;;;;;;15.20;11.25;;;;;;;;;;5101994;28;20188;-62
2022/03/04 12:04:34;;;;;;;42.65;27.10;;;;;;;;;;5102147;28;20727;-63
2022/03/04 12:07:06;;;;;;;11.00;9.80;;;;;;;;;;5104293;28;20176;-62
2022/03/04 12:09:32;;;;;;;15.73;11.40;;;;;;;;;;5100951;28;20751;-62
2022/03/04 12:12:10;;;;;;;17.25;11.68;;;;;;;;;;5077676;28;20179;-62
2022/03/04 12:14:35;;;;;;;23.95;14.60;;;;;;;;;;5099449;28;21111;-62
2022/03/04 12:17:00;;;;;;;36.70;22.15;;;;;;;;;;5101997;28;20754;-62
2022/03/04 12:19:30;;;;;;;31.08;19.50;;;;;;;;;;5097475;28;21225;-63
2022/03/04 12:21:58;;;;;;;21.30;14.45;;;;;;;;;;5094929;28;20195;-62
2022/03/04 12:24:30;;;;;;;12.57;10.07;;;;;;;;;;5103999;28;20175;-62
2022/03/04 12:26:56;;;;;;;11.20;9.77;;;;;;;;;;5098552;28;20180;-61
2022/03/04 12:29:24;;;;;;;15.75;10.10;;;;;;;;;;5090998;28;20183;-61
2022/03/04 12:31:50;;;;;;;15.77;12.02;;;;;;;;;;5085104;28;20283;-62
2022/03/04 12:34:19;;;;;;;16.92;10.43;;;;;;;;;;5078193;28;20208;-62
2022/03/04 12:36:45;;;;;;;14.45;10.50;;;;;;;;;;5097230;28;20591;-62
2022/03/04 12:39:11;;;;;;;13.18;10.43;;;;;;;;;;5097032;28;20175;-62
2022/03/04 12:41:36;;;;;;;14.15;11.23;;;;;;;;;;5098018;28;21186;-62
2022/03/04 12:44:05;;;;;;;15.90;12.88;;;;;;;;;;5092100;28;20188;-62
2022/03/04 12:46:31;;;;;;;8.88;7.55;;;;;;;;;;5097843;28;20569;-62
2022/03/04 12:48:57;;;;;;;9.75;8.32;;;;;;;;;;5098277;28;20200;-62
2022/03/04 12:51:27;;;;;;;9.93;8.55;;;;;;;;;;5102813;28;20210;-62
2022/03/04 12:53:53;;;;;;;12.20;9.77;;;;;;;;;;5096358;28;20298;-61
2022/03/04 12:56:20;;;;;;;13.40;9.02;;;;;;;;;;5098823;28;20588;-62
2022/03/04 12:58:49;;;;;;;13.55;9.77;;;;;;;;;;5096009;28;20198;-62
2022/03/04 13:01:15;;;;;;;14.68;10.02;;;;;;;;;;5097230;28;20194;-62
2022/03/04 13:03:44;;;;;;;15.63;11.88;;;;;;;;;;5096558;28;20187;-64
2022/03/04 13:06:10;;;;;;;13.00;9.20;;;;;;;;;;5088979;28;20181;-63
2022/03/04 13:08:44;;;;;;;11.32;9.00;;;;;;;;;;5099270;28;20683;-63
2022/03/04 13:11:10;;;;;;;10.60;8.35;;;;;;;;;;5098143;28;20195;-61
2022/03/04 13:13:49;;;;;;;10.88;8.55;;;;;;;;;;5099472;28;20200;-63
2022/03/04 13:16:18;;;;;;;10.50;8.90;;;;;;;;;;5097505;28;21033;-63
2022/03/04 13:18:43;;;;;;;14.63;9.35;;;;;;;;;;5100691;28;20254;-63
2022/03/04 13:21:09;;;;;;;11.48;9.30;;;;;;;;;;5098426;28;20274;-63
2022/03/04 13:23:35;;;;;;;14.20;11.02;;;;;;;;;;5104027;28;20191;-61
2022/03/04 13:26:07;;;;;;;16.67;10.95;;;;;;;;;;5087927;28;20189;-61
2022/03/04 13:29:05;;;;;;;10.20;8.52;;;;;;;;;;5094228;28;20228;-61
2022/03/04 13:31:36;;;;;;;13.23;9.88;;;;;;;;;;5067038;28;20663;-62
2022/03/04 13:34:06;;;;;;;10.52;8.63;;;;;;;;;;5099638;28;20254;-61
2022/03/04 13:36:40;;;;;;;13.93;9.20;;;;;;;;;;5096828;28;20183;-62
2022/03/04 13:39:10;;;;;;;14.85;10.18;;;;;;;;;;5098770;27;20256;-61
2022/03/04 13:41:37;;;;;;;14.68;10.75;;;;;;;;;;5100508;28;21062;-61
2022/03/04 13:44:12;;;;;;;13.18;10.50;;;;;;;;;;5097458;28;20708;-62
2022/03/04 13:46:57;;;;;;;14.68;9.60;;;;;;;;;;5098278;28;20189;-61
2022/03/04 13:49:23;;;;;;;11.82;9.18;;;;;;;;;;5099106;28;20727;-62
2022/03/04 13:52:01;;;;;;;11.40;9.20;;;;;;;;;;5097097;28;20179;-62
2022/03/04 13:54:45;;;;;;;11.68;9.35;;;;;;;;;;5100397;28;20241;-62
2022/03/04 13:57:23;;;;;;;13.43;9.95;;;;;;;;;;5096159;28;20236;-62
2022/03/04 13:59:48;;;;;;;11.75;8.90;;;;;;;;;;5097898;28;20318;-62
2022/03/04 14:02:14;;;;;;;29.25;17.73;;;;;;;;;;5096739;28;20657;-62
2022/03/04 14:05:00;;;;;;;18.45;12.85;;;;;;;;;;5089995;28;20219;-62
2022/03/04 14:07:25;;;;;;;15.50;10.07;;;;;;;;;;5100851;28;20609;-63
2022/03/04 14:09:56;;;;;;;14.95;9.38;;;;;;;;;;5100328;28;20234;-63
2022/03/04 14:12:22;;;;;;;9.45;7.43;;;;;;;;;;5101205;28;20241;-62
2022/03/04 14:14:48;;;;;;;9.90;8.18;;;;;;;;;;5101577;28;20222;-62
2022/03/04 14:17:14;;;;;;;9.90;8.02;;;;;;;;;;5098718;28;20270;-63
2022/03/04 14:19:39;;;;;;;11.07;7.50;;;;;;;;;;5096899;28;20732;-63
2022/03/04 14:22:05;;;;;;;7.88;7.07;;;;;;;;;;5099947;28;20187;-62
2022/03/04 14:24:30;;;;;;;8.50;6.97;;;;;;;;;;5092115;28;20207;-62
2022/03/04 14:26:55;;;;;;;9.48;7.05;;;;;;;;;;5093895;28;20176;-63